createdAt,value
2017-12-21T15:54:24.121Z,1026.63
2017-12-21T15:55:24.153Z,1026.59
2017-12-21T15:56:24.539Z,1026.51
2017-12-21T15:57:24.936Z,1026.51
2017-12-21T15:58:25.040Z,1026.48
2017-12-21T15:59:25.423Z,1026.45
2017-12-21T16:00:25.422Z,1026.4
2017-12-21T16:01:25.462Z,1026.4
2017-12-21T16:02:25.465Z,1026.51
2017-12-21T16:03:25.497Z,1026.59
2017-12-21T16:04:25.504Z,1026.65
2017-12-21T16:05:25.886Z,1026.65
2017-12-21T16:06:26.570Z,1026.59
2017-12-21T16:07:26.453Z,1026.57
2017-12-21T16:08:26.502Z,1026.6
2017-12-21T16:09:26.521Z,1026.65
2017-12-21T16:10:26.548Z,1026.68
2017-12-21T16:11:26.723Z,1026.78
2017-12-21T16:12:26.873Z,1026.74
2017-12-21T16:13:26.986Z,1026.74
2017-12-21T16:14:27.011Z,1026.67
2017-12-21T16:15:27.014Z,1026.59
2017-12-21T16:16:27.039Z,1026.6
2017-12-21T16:17:27.450Z,1026.67
2017-12-21T16:18:27.475Z,1026.65
2017-12-21T16:19:27.822Z,1026.73
2017-12-21T16:20:27.825Z,1026.73
2017-12-21T16:21:28.279Z,1026.75
2017-12-21T16:22:28.913Z,1026.78
2017-12-21T16:23:29.064Z,1026.84
2017-12-21T16:24:29.095Z,1026.83
2017-12-21T16:25:29.121Z,1026.81
2017-12-21T16:26:29.150Z,1026.87
2017-12-21T16:27:29.241Z,1026.93
2017-12-21T16:28:29.358Z,1026.88
2017-12-21T16:29:29.659Z,1026.86
2017-12-21T16:30:29.677Z,1026.87
2017-12-21T16:31:29.710Z,1026.82
2017-12-21T16:32:30.135Z,1026.78
2017-12-21T16:33:30.550Z,1026.76
2017-12-21T16:34:30.606Z,1026.8
2017-12-21T16:35:31.027Z,1026.87
2017-12-21T16:36:31.366Z,1026.92
2017-12-21T16:37:31.399Z,1027.01
2017-12-21T16:38:31.777Z,1027
2017-12-21T16:39:31.820Z,1027.01
2017-12-21T16:40:32.012Z,1026.95
2017-12-21T16:41:32.061Z,1026.98
2017-12-21T16:42:32.257Z,1026.93
2017-12-21T16:43:32.531Z,1026.92
2017-12-21T16:44:32.550Z,1026.97
2017-12-21T16:45:32.978Z,1026.93
2017-12-21T16:46:33.032Z,1026.96
2017-12-21T16:47:33.160Z,1026.97
2017-12-21T16:48:33.320Z,1027.03
2017-12-21T16:49:33.720Z,1027.02
2017-12-21T16:50:33.734Z,1027.08
2017-12-21T16:51:33.779Z,1027.03
2017-12-21T16:52:33.807Z,1027.03
2017-12-21T16:53:34.205Z,1026.94
2017-12-21T16:54:34.235Z,1026.95
2017-12-21T16:55:34.241Z,1027
2017-12-21T16:56:34.266Z,1027.04
2017-12-21T16:57:34.458Z,1027.04
2017-12-21T16:58:34.592Z,1027.01
2017-12-21T16:59:34.626Z,1027.04
2017-12-21T17:00:34.782Z,1027.12
2017-12-21T17:01:34.793Z,1027.17
2017-12-21T17:02:34.833Z,1027.16
2017-12-21T17:03:35.261Z,1027.13
2017-12-21T17:04:35.280Z,1027.11
2017-12-21T17:05:35.470Z,1027.13
2017-12-21T17:06:35.599Z,1027.07
2017-12-21T17:07:35.638Z,1027.07
2017-12-21T17:08:35.670Z,1027.06
2017-12-21T17:09:35.675Z,1027.01
2017-12-21T17:10:36.016Z,1027.04
2017-12-21T17:11:36.192Z,1027.04
2017-12-21T17:12:36.191Z,1027.03
2017-12-21T17:13:36.254Z,1027
2017-12-21T17:14:36.902Z,1027.01
2017-12-21T17:15:37.101Z,1027
2017-12-21T17:16:37.130Z,1027.01
2017-12-21T17:17:37.147Z,1027.02
2017-12-21T17:18:37.171Z,1027.01
2017-12-21T17:19:37.614Z,1027
2017-12-21T17:20:38.073Z,1026.95
2017-12-21T17:21:38.237Z,1027.04
2017-12-21T17:22:38.330Z,1027
2017-12-21T17:23:38.377Z,1027.09
2017-12-21T17:24:38.406Z,1027.04
2017-12-21T17:25:38.561Z,1027.13
2017-12-21T17:26:38.586Z,1027.12
2017-12-21T17:27:38.962Z,1027.12
2017-12-21T17:28:39.327Z,1027.17
2017-12-21T17:29:39.371Z,1027.11
2017-12-21T17:30:39.484Z,1027.11
2017-12-21T17:31:39.540Z,1027.11
2017-12-21T17:32:39.567Z,1027.17
2017-12-21T17:33:39.717Z,1027.18
2017-12-21T17:34:39.725Z,1027.13
2017-12-21T17:35:39.756Z,1027.12
2017-12-21T17:36:40.141Z,1027.11
2017-12-21T17:37:40.329Z,1027.15
2017-12-21T17:38:40.970Z,1027.17
2017-12-21T17:39:40.994Z,1027.2
2017-12-21T17:40:41.204Z,1027.21
2017-12-21T17:41:41.211Z,1027.26
2017-12-21T17:42:41.263Z,1027.22
2017-12-21T17:43:41.650Z,1027.31
2017-12-21T17:44:41.773Z,1027.38
2017-12-21T17:45:42.173Z,1027.33
2017-12-21T17:46:42.203Z,1027.33
2017-12-21T17:47:42.242Z,1027.36
2017-12-21T17:48:42.703Z,1027.29
2017-12-21T17:49:42.811Z,1027.35
2017-12-21T17:50:42.844Z,1027.44
2017-12-21T17:51:42.887Z,1027.51
2017-12-21T17:52:42.911Z,1027.54
2017-12-21T17:53:42.918Z,1027.53
2017-12-21T17:54:42.950Z,1027.52
2017-12-21T17:55:43.132Z,1027.46
2017-12-21T17:56:43.357Z,1027.44
2017-12-21T17:57:43.406Z,1027.44
2017-12-21T17:58:43.762Z,1027.43
2017-12-21T17:59:43.806Z,1027.43
2017-12-21T18:00:43.976Z,1027.52
2017-12-21T18:01:44.002Z,1027.53
2017-12-21T18:02:44.141Z,1027.61
2017-12-21T18:03:44.308Z,1027.62
2017-12-21T18:04:44.335Z,1027.65
2017-12-21T18:05:44.663Z,1027.68
2017-12-21T18:06:44.709Z,1027.69
2017-12-21T18:07:45.112Z,1027.69
2017-12-21T18:08:45.137Z,1027.75
2017-12-21T18:09:45.168Z,1027.74
2017-12-21T18:10:45.214Z,1027.73
2017-12-21T18:11:45.604Z,1027.77
2017-12-21T18:12:45.745Z,1027.66
2017-12-21T18:13:46.018Z,1027.63
2017-12-21T18:14:46.042Z,1027.58
2017-12-21T18:15:46.071Z,1027.62
2017-12-21T18:16:46.102Z,1027.64
2017-12-21T18:17:46.505Z,1027.67
2017-12-21T18:18:46.528Z,1027.67
2017-12-21T18:19:46.674Z,1027.72
2017-12-21T18:20:46.675Z,1027.73
2017-12-21T18:21:46.882Z,1027.81
2017-12-21T18:22:46.907Z,1027.89
2017-12-21T18:23:47.104Z,1027.89
2017-12-21T18:24:47.474Z,1027.94
2017-12-21T18:25:47.519Z,1027.92
2017-12-21T18:26:47.686Z,1028.02
2017-12-21T18:27:48.072Z,1028.02
2017-12-21T18:28:48.468Z,1027.97
2017-12-21T18:29:48.477Z,1027.96
2017-12-21T18:30:48.908Z,1027.92
2017-12-21T18:31:48.934Z,1027.94
2017-12-21T18:32:48.937Z,1027.96
2017-12-21T18:33:49.402Z,1027.95
2017-12-21T18:34:49.767Z,1027.97
2017-12-21T18:35:50.224Z,1027.97
2017-12-21T18:36:50.393Z,1027.9
2017-12-21T18:37:50.613Z,1027.83
2017-12-21T18:38:50.665Z,1027.8
2017-12-21T18:39:50.694Z,1027.74
2017-12-21T18:40:51.137Z,1027.84
2017-12-21T18:41:51.332Z,1027.77
2017-12-21T18:42:51.580Z,1027.71
2017-12-21T18:43:51.611Z,1027.78
2017-12-21T18:44:51.614Z,1027.8
2017-12-21T18:45:51.639Z,1027.84
2017-12-21T18:46:51.817Z,1027.79
2017-12-21T18:47:51.841Z,1027.81
2017-12-21T18:48:51.883Z,1027.79
2017-12-21T18:49:51.898Z,1027.77
2017-12-21T18:50:52.376Z,1027.73
2017-12-21T18:51:52.564Z,1027.67
2017-12-21T18:52:52.587Z,1027.59
2017-12-21T18:53:53.006Z,1027.55
2017-12-21T18:54:53.437Z,1027.57
2017-12-21T18:55:53.600Z,1027.52
2017-12-21T18:56:53.635Z,1027.47
2017-12-21T18:57:53.845Z,1027.48
2017-12-21T18:58:53.855Z,1027.44
2017-12-21T18:59:53.902Z,1027.42
2017-12-21T19:00:53.935Z,1027.36
2017-12-21T19:01:54.139Z,1027.37
2017-12-21T19:02:54.534Z,1027.45
2017-12-21T19:03:54.558Z,1027.42
2017-12-21T19:04:54.582Z,1027.45
2017-12-21T19:05:54.615Z,1027.5
2017-12-21T19:06:54.639Z,1027.53
2017-12-21T19:07:54.685Z,1027.58
2017-12-21T19:08:54.832Z,1027.57
2017-12-21T19:09:54.866Z,1027.58
2017-12-21T19:10:55.170Z,1027.63
2017-12-21T19:11:55.195Z,1027.62
2017-12-21T19:12:55.457Z,1027.72
2017-12-21T19:13:55.213Z,1027.77
2017-12-21T19:14:55.593Z,1027.83
2017-12-21T19:15:55.342Z,1027.81
2017-12-21T19:16:56.094Z,1027.96
2017-12-21T19:17:56.125Z,1027.95
2017-12-21T19:18:56.133Z,1027.94
2017-12-21T19:19:56.154Z,1027.85
2017-12-21T19:20:56.204Z,1027.76
2017-12-21T19:21:56.204Z,1027.69
2017-12-21T19:22:56.932Z,1027.66
2017-12-21T19:23:56.941Z,1027.66
2017-12-21T19:24:56.961Z,1027.78
2017-12-21T19:25:56.989Z,1027.84
2017-12-21T19:26:57.352Z,1027.92
2017-12-21T19:27:57.150Z,1027.99
2017-12-21T19:28:57.155Z,1028.08
2017-12-21T19:29:57.433Z,1028.01
2017-12-21T19:30:57.282Z,1028.01
2017-12-21T19:31:57.275Z,1028
2017-12-21T19:32:57.284Z,1028.09
2017-12-21T19:33:57.326Z,1028.11
2017-12-21T19:34:57.350Z,1028.09
2017-12-21T19:35:57.350Z,1028.1
2017-12-21T19:36:57.368Z,1028.11
2017-12-21T19:37:57.397Z,1028.11
2017-12-21T19:38:57.538Z,1028.1
2017-12-21T19:39:57.551Z,1028.09
2017-12-21T19:40:57.581Z,1028.08
2017-12-21T19:41:57.651Z,1028.06
2017-12-21T19:42:57.649Z,1028.03
2017-12-21T19:43:57.920Z,1027.99
2017-12-21T19:44:57.707Z,1027.94
2017-12-21T19:45:57.711Z,1027.99
2017-12-21T19:46:58.408Z,1027.97
2017-12-21T19:47:58.556Z,1027.97
2017-12-21T19:48:58.564Z,1027.9
2017-12-21T19:49:58.790Z,1027.84
2017-12-21T19:50:58.807Z,1027.77
2017-12-21T19:51:58.856Z,1027.73
2017-12-21T19:52:58.882Z,1027.65
2017-12-21T19:53:58.887Z,1027.68
2017-12-21T19:54:58.950Z,1027.61
2017-12-21T19:55:58.943Z,1027.57
2017-12-21T19:56:58.989Z,1027.59
2017-12-21T19:57:58.991Z,1027.55
2017-12-21T19:58:59.011Z,1027.55
2017-12-21T19:59:59.044Z,1027.53
2017-12-21T20:00:59.108Z,1027.53
2017-12-21T20:01:59.098Z,1027.55
2017-12-21T20:02:59.150Z,1027.56
2017-12-21T20:03:59.150Z,1027.57
2017-12-21T20:04:59.433Z,1027.51
2017-12-21T20:05:59.203Z,1027.52
2017-12-21T20:06:59.539Z,1027.55
2017-12-21T20:07:59.279Z,1027.53
2017-12-21T20:08:59.281Z,1027.61
2017-12-21T20:09:59.340Z,1027.57
2017-12-21T20:10:59.360Z,1027.63
2017-12-21T20:11:59.464Z,1027.62
2017-12-21T20:12:59.511Z,1027.61
2017-12-21T20:13:59.544Z,1027.64
2017-12-21T20:14:59.995Z,1027.58
2017-12-21T20:16:00.018Z,1027.55
2017-12-21T20:17:00.018Z,1027.5
2017-12-21T20:18:00.212Z,1027.51
2017-12-21T20:19:00.217Z,1027.45
2017-12-21T20:20:00.574Z,1027.52
2017-12-21T20:21:00.472Z,1027.44
2017-12-21T20:22:00.474Z,1027.44
2017-12-21T20:23:00.505Z,1027.45
2017-12-21T20:24:00.929Z,1027.53
2017-12-21T20:25:00.981Z,1027.6
2017-12-21T20:26:01.400Z,1027.62
2017-12-21T20:27:01.419Z,1027.7
2017-12-21T20:28:02.085Z,1027.68
2017-12-21T20:29:02.086Z,1027.76
2017-12-21T20:30:02.134Z,1027.68
2017-12-21T20:31:02.390Z,1027.71
2017-12-21T20:32:02.185Z,1027.72
2017-12-21T20:33:02.619Z,1027.77
2017-12-21T20:34:02.621Z,1027.71
2017-12-21T20:36:02.809Z,1027.8
2017-12-21T20:37:02.837Z,1027.77
2017-12-21T20:38:02.863Z,1027.78
2017-12-21T20:39:02.866Z,1027.74
2017-12-21T20:40:03.293Z,1027.76
2017-12-21T20:41:03.304Z,1027.73
2017-12-21T20:42:03.353Z,1027.72
2017-12-21T20:43:03.532Z,1027.7
2017-12-21T20:44:03.704Z,1027.65
2017-12-21T20:45:03.770Z,1027.63
2017-12-21T20:46:03.923Z,1027.65
2017-12-21T20:47:03.940Z,1027.62
2017-12-21T20:48:03.946Z,1027.62
2017-12-21T20:49:03.973Z,1027.64
2017-12-21T20:50:04.437Z,1027.66
2017-12-21T20:51:04.420Z,1027.61
2017-12-21T20:52:04.642Z,1027.71
2017-12-21T20:53:05.061Z,1027.74
2017-12-21T20:54:05.269Z,1027.72
2017-12-21T20:55:05.547Z,1027.71
2017-12-21T20:56:05.594Z,1027.79
2017-12-21T20:57:05.738Z,1027.73
2017-12-21T20:58:06.113Z,1027.71
2017-12-21T20:59:06.256Z,1027.71
2017-12-21T21:00:06.290Z,1027.69
2017-12-21T21:01:06.333Z,1027.66
2017-12-21T21:02:06.742Z,1027.68
2017-12-21T21:03:06.871Z,1027.67
2017-12-21T21:04:07.241Z,1027.68
2017-12-21T21:05:07.404Z,1027.7
2017-12-21T21:06:07.467Z,1027.69
2017-12-21T21:07:07.465Z,1027.68
2017-12-21T21:08:07.492Z,1027.66
2017-12-21T21:09:07.915Z,1027.67
2017-12-21T21:10:07.957Z,1027.69
2017-12-21T21:11:07.991Z,1027.68
2017-12-21T21:12:07.989Z,1027.64
2017-12-21T21:13:08.176Z,1027.62
2017-12-21T21:14:08.473Z,1027.63
2017-12-21T21:15:08.920Z,1027.66
2017-12-21T21:16:09.124Z,1027.69
2017-12-21T21:17:09.518Z,1027.71
2017-12-21T21:18:09.546Z,1027.74
2017-12-21T21:19:09.663Z,1027.74
2017-12-21T21:20:09.710Z,1027.78
2017-12-21T21:21:09.825Z,1027.77
2017-12-21T21:22:09.924Z,1027.79
2017-12-21T21:23:09.953Z,1027.85
2017-12-21T21:24:10.367Z,1027.84
2017-12-21T21:25:11.314Z,1027.89
2017-12-21T21:26:11.428Z,1027.86
2017-12-21T21:27:11.644Z,1027.86
2017-12-21T21:28:11.748Z,1027.88
2017-12-21T21:29:12.144Z,1027.89
2017-12-21T21:30:12.533Z,1027.89
2017-12-21T21:31:12.559Z,1027.88
2017-12-21T21:32:12.754Z,1027.92
2017-12-21T21:33:12.876Z,1027.92
2017-12-21T21:34:12.931Z,1028
2017-12-21T21:35:12.934Z,1027.95
2017-12-21T21:36:12.969Z,1028.03
2017-12-21T21:37:13.190Z,1028.07
2017-12-21T21:38:13.312Z,1028.14
2017-12-21T21:39:13.344Z,1028.1
2017-12-21T21:40:13.368Z,1028.12
2017-12-21T21:41:13.390Z,1028.14
2017-12-21T21:42:13.436Z,1028.15
2017-12-21T21:43:14.205Z,1028.1
2017-12-21T21:44:14.235Z,1028.09
2017-12-21T21:45:14.350Z,1028.09
2017-12-21T21:46:14.380Z,1028.08
2017-12-21T21:47:14.529Z,1028.11
2017-12-21T21:48:14.934Z,1028.11
2017-12-21T21:49:14.972Z,1028.03
2017-12-21T21:50:15.104Z,1028.07
2017-12-21T21:51:15.255Z,1028.09
2017-12-21T21:52:15.273Z,1028.07
2017-12-21T21:53:15.299Z,1028.07
2017-12-21T21:54:15.332Z,1028.01
2017-12-21T21:55:15.652Z,1028.05
2017-12-21T21:56:16.012Z,1028.08
2017-12-21T21:57:16.035Z,1028.08
2017-12-21T21:58:16.432Z,1028.14
2017-12-21T21:59:16.436Z,1028.12
2017-12-21T22:00:16.482Z,1028.13
2017-12-21T22:01:16.636Z,1028.12
2017-12-21T22:02:17.004Z,1028.14
2017-12-21T22:03:17.059Z,1028.16
2017-12-21T22:04:17.104Z,1028.15
2017-12-21T22:05:17.235Z,1028.14
2017-12-21T22:06:17.279Z,1028.17
2017-12-21T22:07:17.412Z,1028.16
2017-12-21T22:08:17.716Z,1028.16
2017-12-21T22:09:18.077Z,1028.13
2017-12-21T22:10:18.108Z,1028.18
2017-12-21T22:11:18.279Z,1028.04
2017-12-21T22:12:18.749Z,1028.04
2017-12-21T22:13:18.777Z,1028.06
2017-12-21T22:14:18.778Z,1028.03
2017-12-21T22:15:18.808Z,1028
2017-12-21T22:16:18.833Z,1028.02
2017-12-21T22:17:18.859Z,1028.01
2017-12-21T22:18:18.909Z,1028.02
2017-12-21T22:19:18.918Z,1027.99
2017-12-21T22:20:18.942Z,1028.02
2017-12-21T22:21:19.380Z,1027.97
2017-12-21T22:22:19.789Z,1027.98
2017-12-21T22:23:19.839Z,1028.01
2017-12-21T22:24:19.850Z,1028.02
2017-12-21T22:25:19.949Z,1028
2017-12-21T22:26:20.122Z,1028.06
2017-12-21T22:27:20.534Z,1028.05
2017-12-21T22:28:20.551Z,1028.07
2017-12-21T22:29:20.744Z,1028.03
2017-12-21T22:30:20.751Z,1028.03
2017-12-21T22:31:20.801Z,1028.05
2017-12-21T22:32:21.242Z,1028.04
2017-12-21T22:33:21.640Z,1028.01
2017-12-21T22:34:22.039Z,1028.02
2017-12-21T22:35:22.440Z,1027.97
2017-12-21T22:36:22.602Z,1028.03
2017-12-21T22:37:22.635Z,1028.04
2017-12-21T22:38:22.663Z,1027.97
2017-12-21T22:39:22.683Z,1027.98
2017-12-21T22:40:23.037Z,1027.92
2017-12-21T22:41:23.447Z,1027.95
2017-12-21T22:42:23.674Z,1027.93
2017-12-21T22:43:23.700Z,1027.96
2017-12-21T22:44:24.139Z,1027.97
2017-12-21T22:45:24.168Z,1027.95
2017-12-21T22:46:24.192Z,1027.95
2017-12-21T22:47:24.220Z,1028.02
2017-12-21T22:48:24.240Z,1027.94
2017-12-21T22:49:24.440Z,1028.01
2017-12-21T22:50:24.464Z,1027.99
2017-12-21T22:51:24.649Z,1027.94
2017-12-21T22:52:24.651Z,1027.98
2017-12-21T22:53:24.675Z,1027.95
2017-12-21T22:54:25.133Z,1027.91
2017-12-21T22:55:25.530Z,1027.87
2017-12-21T22:56:25.960Z,1027.96
2017-12-21T22:57:25.958Z,1027.93
2017-12-21T22:58:26.390Z,1027.9
2017-12-21T22:59:26.842Z,1027.88
2017-12-21T23:00:26.847Z,1027.89
2017-12-21T23:01:27.261Z,1027.92
2017-12-21T23:02:27.256Z,1027.9
2017-12-21T23:03:27.304Z,1027.86
2017-12-21T23:04:27.488Z,1027.86
2017-12-21T23:05:27.490Z,1027.88
2017-12-21T23:06:27.516Z,1027.97
2017-12-21T23:07:27.544Z,1027.88
2017-12-21T23:08:27.590Z,1027.86
2017-12-21T23:09:27.994Z,1027.92
2017-12-21T23:10:28.128Z,1027.91
2017-12-21T23:11:28.245Z,1027.96
2017-12-21T23:12:28.353Z,1027.97
2017-12-21T23:13:28.745Z,1027.91
2017-12-21T23:14:28.802Z,1028
2017-12-21T23:15:28.807Z,1027.99
2017-12-21T23:16:28.834Z,1027.95
2017-12-21T23:17:28.927Z,1027.94
2017-12-21T23:18:29.015Z,1027.93
2017-12-21T23:19:29.044Z,1027.89
2017-12-21T23:20:29.473Z,1027.86
2017-12-21T23:21:29.495Z,1027.89
2017-12-21T23:22:29.501Z,1027.89
2017-12-21T23:23:29.682Z,1027.91
2017-12-21T23:24:30.097Z,1027.86
2017-12-21T23:25:30.494Z,1027.88
2017-12-21T23:26:30.619Z,1027.87
2017-12-21T23:27:30.945Z,1027.86
2017-12-21T23:28:31.059Z,1027.89
2017-12-21T23:29:31.106Z,1027.94
2017-12-21T23:30:31.508Z,1027.9
2017-12-21T23:31:31.553Z,1027.89
2017-12-21T23:32:31.951Z,1027.9
2017-12-21T23:33:32.324Z,1027.9
2017-12-21T23:34:32.353Z,1027.97
2017-12-21T23:35:32.781Z,1027.92
2017-12-21T23:36:32.808Z,1027.89
2017-12-21T23:37:32.818Z,1027.93
2017-12-21T23:38:32.936Z,1027.92
2017-12-21T23:39:32.961Z,1027.89
2017-12-21T23:40:33.006Z,1027.93
2017-12-21T23:41:33.012Z,1027.87
2017-12-21T23:42:33.041Z,1027.88
2017-12-21T23:43:33.434Z,1027.9
2017-12-21T23:44:33.464Z,1027.93
2017-12-21T23:45:33.575Z,1027.92
2017-12-21T23:46:33.626Z,1027.87
2017-12-21T23:47:33.772Z,1027.9
2017-12-21T23:48:33.797Z,1027.88
2017-12-21T23:49:33.922Z,1027.88
2017-12-21T23:50:33.954Z,1027.94
2017-12-21T23:51:34.364Z,1027.9
2017-12-21T23:52:34.487Z,1027.91
2017-12-21T23:53:34.914Z,1027.91
2017-12-21T23:54:35.318Z,1027.85
2017-12-21T23:55:35.419Z,1027.83
2017-12-21T23:56:35.440Z,1027.86
2017-12-21T23:57:35.470Z,1027.83
2017-12-21T23:58:35.504Z,1027.77
2017-12-21T23:59:35.872Z,1027.82
